Taizhou Pioneer — 9HA3743 — position and weather

sailwx.info

Track history (hours):
 
Tides and Currents Weather Stations Pressure Air Temp Water Temp Dewpoint Dewpoint Depression Visibility Wind Speed Wind Dir Waves Ship Positions

Taizhou Pioneer

Last reported at 2018-Mar-25 16:46 UTC. Time now 2018-Apr-19 13:20 UTC.
Position N 09°11' W 079°52'.
Warning: this ship's position is 24 days out of date.

Length 180 m; draft 10.3 m.

Type: Cargo ship. MMSI: 229954000.

Date/timePositionNaut miles runAvg speedWind from/ knotsBaromVisibWave heightAir tempDewpointWater temp
2018-Mar-25 16:46N 09°11' W 079°52'2 7.8
2018-Mar-25 16:30N 09°12' W 079°54'4 5.3
2018-Mar-25 15:45N 09°15' W 079°55'0 0.6
2018-Mar-25 15:30N 09°15' W 079°55'1 1.6
2018-Mar-25 15:00N 09°16' W 079°55'0 0.4
2018-Mar-25 14:30N 09°16' W 079°55'0 0.4
2018-Mar-25 14:00N 09°17' W 079°55'1 0.7
2018-Mar-25 12:44N 09°17' W 079°55'2 6.8
2018-Mar-25 12:30N 09°19' W 079°55'3 5.4
2018-Mar-25 12:00N 09°22' W 079°55'1 2.0
2018-Mar-25 11:30N 09°23' W 079°56'0 0.0
2018-Mar-25 11:00N 09°23' W 079°56'0 0.0
2018-Mar-25 10:30N 09°23' W 079°56'0 0.0
2018-Mar-25 09:57N 09°23' W 079°56'0 0.0
2018-Mar-25 09:30N 09°23' W 079°56'0 0.0
2018-Mar-25 08:54N 09°23' W 079°56'0 0.0
2018-Mar-25 08:30N 09°23' W 079°56'0 0.0
2018-Mar-25 08:00N 09°23' W 079°56'0 0.0
2018-Mar-25 07:30N 09°23' W 079°56'0 0.0
2018-Mar-25 06:59N 09°23' W 079°56'0 0.0
2018-Mar-25 06:30N 09°23' W 079°56'0 0.0
2018-Mar-25 06:00N 09°23' W 079°56'0 0.0
2018-Mar-25 05:29N 09°23' W 079°56'0 0.0
2018-Mar-25 04:59N 09°23' W 079°56'0 0.0
2018-Mar-25 04:29N 09°23' W 079°56'0 0.0
2018-Mar-25 03:59N 09°23' W 079°56'0 0.0
2018-Mar-25 03:29N 09°23' W 079°56'0 0.0
2018-Mar-25 03:00N 09°23' W 079°56'0 0.0
2018-Mar-25 02:30N 09°23' W 079°56'0 0.0
2018-Mar-25 01:54N 09°23' W 079°56'0 0.0
2018-Mar-25 01:30N 09°23' W 079°56'0 0.0
2018-Mar-25 01:00N 09°23' W 079°56'0 0.0
2018-Mar-25 00:30N 09°23' W 079°56'0 0.0
2018-Mar-24 23:59N 09°23' W 079°56'0 0.0
2018-Mar-24 23:29N 09°23' W 079°56'0 0.0
2018-Mar-24 23:00N 09°23' W 079°56'0 0.0
2018-Mar-24 22:27N 09°23' W 079°56'0 0.0
2018-Mar-24 22:00N 09°23' W 079°56'0 0.0
2018-Mar-24 21:29N 09°23' W 079°56'0 0.0
2018-Mar-24 21:00N 09°23' W 079°56'0 0.0
2018-Mar-24 20:30N 09°23' W 079°56'0 0.0
2018-Mar-24 19:59N 09°23' W 079°56'0 0.0
2018-Mar-24 19:30N 09°23' W 079°56'0 0.0
2018-Mar-24 19:00N 09°23' W 079°56'0 0.0
2018-Mar-24 18:29N 09°23' W 079°56'0 0.0
2018-Mar-24 18:00N 09°23' W 079°56'0 0.0
2018-Mar-24 17:30N 09°23' W 079°56'0 0.0
2018-Mar-24 16:59N 09°23' W 079°56'0 0.0
2018-Mar-24 16:30N 09°23' W 079°56'0 0.0
2018-Mar-24 16:00N 09°23' W 079°56'0 0.0
2018-Mar-24 15:29N 09°23' W 079°56'0 0.0
2018-Mar-24 14:59N 09°23' W 079°56'0 0.0
2018-Mar-24 14:28N 09°23' W 079°56'0 0.0
2018-Mar-24 13:59N 09°23' W 079°56'0 0.0
2018-Mar-24 13:30N 09°23' W 079°56'0 0.0
2018-Mar-24 13:00N 09°23' W 079°56'0 0.0
2018-Mar-24 12:29N 09°23' W 079°56'0 0.0
2018-Mar-24 11:58N 09°23' W 079°56'0 0.0
2018-Mar-24 11:30N 09°23' W 079°56'0 0.0
2018-Mar-24 11:00N 09°23' W 079°56'0 0.0
2018-Mar-24 10:30N 09°23' W 079°56'0 0.0
2018-Mar-24 10:00N 09°23' W 079°56'0 0.0
2018-Mar-24 09:30N 09°23' W 079°56'0 0.0
2018-Mar-24 09:00N 09°23' W 079°56'0 0.0
2018-Mar-24 08:30N 09°23' W 079°56'0 0.0
2018-Mar-24 08:00N 09°23' W 079°56'0 0.1
2018-Mar-24 07:30N 09°23' W 079°56'0 0.0
2018-Mar-24 07:00N 09°23' W 079°56'0 0.0
2018-Mar-24 06:30N 09°23' W 079°56'0 0.0
2018-Mar-24 05:58N 09°23' W 079°56'0 0.0
2018-Mar-24 05:27N 09°23' W 079°56'0 0.0
2018-Mar-24 05:00N 09°23' W 079°56'0 0.0
2018-Mar-24 04:30N 09°23' W 079°56'0 0.0
2018-Mar-24 04:00N 09°23' W 079°56'0 0.0
2018-Mar-24 03:29N 09°23' W 079°56'0 0.0
2018-Mar-24 02:58N 09°23' W 079°56'0 0.0
2018-Mar-24 02:28N 09°23' W 079°56'0 0.0
2018-Mar-24 01:59N 09°23' W 079°56'0 0.1
2018-Mar-24 01:30N 09°23' W 079°56'0 0.0
2018-Mar-24 00:59N 09°23' W 079°56'0 0.0
2018-Mar-24 00:30N 09°23' W 079°56'0 0.0
2018-Mar-24 00:00N 09°23' W 079°56'0 0.1
2018-Mar-23 23:29N 09°23' W 079°56'0 0.0
2018-Mar-23 23:00N 09°23' W 079°56'0 0.0
2018-Mar-23 22:30N 09°23' W 079°56'0 0.1
2018-Mar-23 22:00N 09°23' W 079°56'0 0.1
2018-Mar-23 21:28N 09°23' W 079°56'0 0.1
2018-Mar-23 21:00N 09°23' W 079°56'0 0.1
2018-Mar-23 20:27N 09°23' W 079°56'0 0.0
2018-Mar-23 20:00N 09°23' W 079°56'0 0.1
2018-Mar-23 19:27N 09°23' W 079°56'0 0.0
2018-Mar-23 18:58N 09°23' W 079°56'0 0.0
2018-Mar-23 18:29N 09°23' W 079°56'0 0.0
2018-Mar-23 18:01N 09°23' W 079°56'0 0.0
2018-Mar-23 17:29N 09°23' W 079°56'0 0.0
2018-Mar-23 16:59N 09°23' W 079°56'0 0.0
2018-Mar-23 16:29N 09°23' W 079°56'0 0.0
2018-Mar-23 15:59N 09°23' W 079°56'0 0.1
2018-Mar-23 15:29N 09°23' W 079°56'0 0.0
2018-Mar-23 14:58N 09°23' W 079°56'0 0.1
2018-Mar-23 14:29N 09°23' W 079°56'0 0.3
2018-Mar-23 14:00N 09°23' W 079°55'2 3.9
2018-Mar-23 13:30N 09°25' W 079°55'2 3.1
2018-Mar-23 12:53N 09°25' W 079°57'0 0.0
2018-Mar-23 12:24N 09°25' W 079°57'0 0.0
2018-Mar-23 11:57N 09°25' W 079°57'0 0.0
2018-Mar-23 11:30N 09°25' W 079°57'0 0.0
2018-Mar-23 10:59N 09°25' W 079°57'0 0.0
2018-Mar-23 10:29N 09°25' W 079°57'0 0.0
2018-Mar-23 09:57N 09°25' W 079°57'0 0.0
2018-Mar-23 09:29N 09°25' W 079°57'0 0.0
2018-Mar-23 08:57N 09°25' W 079°57'0 0.0
2018-Mar-23 08:22N 09°25' W 079°57'0 0.0
2018-Mar-23 07:59N 09°25' W 079°57'0 0.0
2018-Mar-23 07:29N 09°25' W 079°57'0 0.0
2018-Mar-23 06:53N 09°25' W 079°57'0 0.0
2018-Mar-23 06:29N 09°25' W 079°57'0 0.0
2018-Mar-23 06:00N 09°25' W 079°57'0 0.0
2018-Mar-23 05:30N 09°25' W 079°57'0 0.0
2018-Mar-23 05:00N 09°25' W 079°57'0 0.0
2018-Mar-23 04:30N 09°25' W 079°57'0 0.0
2018-Mar-23 03:54N 09°25' W 079°57'0 0.0
2018-Mar-23 03:30N 09°25' W 079°57'0 0.0
2018-Mar-23 03:00N 09°25' W 079°57'0 0.0
2018-Mar-23 01:21N 09°25' W 079°57'0 0.0
2018-Mar-23 00:53N 09°25' W 079°57'0 0.0
2018-Mar-23 00:30N 09°25' W 079°57'  
2018-Mar-18 11:46N 27°45' W 082°31'3 9.8
2018-Mar-18 11:30N 27°48' W 082°30'510.0
2018-Mar-18 10:59N 27°52' W 082°27'3 6.6
2018-Mar-18 10:30N 27°55' W 082°26'0 0.7
2018-Mar-18 09:56N 27°55' W 082°25'0 0.0
2018-Mar-18 09:29N 27°55' W 082°25'0 0.0
2018-Mar-18 08:59N 27°55' W 082°25'0 0.0
2018-Mar-18 08:29N 27°55' W 082°25'0 0.0
2018-Mar-18 07:59N 27°55' W 082°25'0 0.0
2018-Mar-18 07:26N 27°55' W 082°25'0 0.0
2018-Mar-18 06:59N 27°55' W 082°25'0 0.0
2018-Mar-18 06:29N 27°55' W 082°25'0 0.0
2018-Mar-18 05:56N 27°55' W 082°25'0 0.0
2018-Mar-18 05:29N 27°55' W 082°25'0 0.0
2018-Mar-18 04:59N 27°55' W 082°25'0 0.0
2018-Mar-18 04:29N 27°55' W 082°25'0 0.0
2018-Mar-18 03:59N 27°55' W 082°25'0 0.0
2018-Mar-18 03:29N 27°55' W 082°25'0 0.0
2018-Mar-18 02:59N 27°55' W 082°25'0 0.0
2018-Mar-18 02:29N 27°55' W 082°25'0 0.0
2018-Mar-18 01:59N 27°55' W 082°25'0 0.0
2018-Mar-18 01:29N 27°55' W 082°25'0 0.0
2018-Mar-18 00:56N 27°55' W 082°25'0 0.0
2018-Mar-18 00:29N 27°55' W 082°25'0 0.0
2018-Mar-17 23:59N 27°55' W 082°25'0 0.0
2018-Mar-17 23:29N 27°55' W 082°25'0 0.0
2018-Mar-17 22:59N 27°55' W 082°25'0 0.0
2018-Mar-17 22:29N 27°55' W 082°25'0 0.0
2018-Mar-17 21:59N 27°55' W 082°25'0 0.0
2018-Mar-17 21:29N 27°55' W 082°25'0 0.0
2018-Mar-17 20:59N 27°55' W 082°25'0 0.0
2018-Mar-17 20:29N 27°55' W 082°25'0 0.0
2018-Mar-17 19:59N 27°55' W 082°25'0 0.0
2018-Mar-17 19:29N 27°55' W 082°25'0 0.0
2018-Mar-17 18:59N 27°55' W 082°25'0 0.0
2018-Mar-17 18:29N 27°55' W 082°25'0 0.0
2018-Mar-17 17:59N 27°55' W 082°25'0 0.0
2018-Mar-17 17:29N 27°55' W 082°25'0 0.0
2018-Mar-17 16:59N 27°55' W 082°25'0 0.0
2018-Mar-17 16:29N 27°55' W 082°25'0 0.0
2018-Mar-17 15:59N 27°55' W 082°25'0 0.0
2018-Mar-17 15:29N 27°55' W 082°25'0 0.0
2018-Mar-17 15:00N 27°55' W 082°25'0 0.5
2018-Mar-17 14:27N 27°55' W 082°25'0 0.0
2018-Mar-17 13:57N 27°55' W 082°25'0 0.0
2018-Mar-17 13:21N 27°55' W 082°25'0 0.0
2018-Mar-17 12:57N 27°55' W 082°25'0 0.0
2018-Mar-17 12:27N 27°55' W 082°25'0 0.0
2018-Mar-17 11:57N 27°55' W 082°25'0 0.0
2018-Mar-17 11:27N 27°55' W 082°25'0 0.0
2018-Mar-17 10:57N 27°55' W 082°25'0 0.0
2018-Mar-17 10:27N 27°55' W 082°25'0 0.0
2018-Mar-17 09:57N 27°55' W 082°25'0 0.0
2018-Mar-17 09:27N 27°55' W 082°25'0 0.0
2018-Mar-17 08:57N 27°55' W 082°25'0 0.0
2018-Mar-17 08:27N 27°55' W 082°25'0 0.0
2018-Mar-17 07:57N 27°55' W 082°25'0 0.0
2018-Mar-17 07:27N 27°55' W 082°25'0 0.0
2018-Mar-17 06:57N 27°55' W 082°25'0 0.0
2018-Mar-17 06:25N 27°55' W 082°25'0 0.0
2018-Mar-17 05:57N 27°55' W 082°25'0 0.0
2018-Mar-17 05:27N 27°55' W 082°25'0 0.0
2018-Mar-17 04:57N 27°55' W 082°25'0 0.0
2018-Mar-17 04:27N 27°55' W 082°25'0 0.0
2018-Mar-17 03:57N 27°55' W 082°25'0 0.0
2018-Mar-17 03:27N 27°55' W 082°25'0 0.0
2018-Mar-17 02:55N 27°55' W 082°25'0 0.0
2018-Mar-17 02:27N 27°55' W 082°25'0 0.0
2018-Mar-17 01:57N 27°55' W 082°25'0 0.0
2018-Mar-17 01:27N 27°55' W 082°25'0 0.0
2018-Mar-17 00:57N 27°55' W 082°25'0 0.0
2018-Mar-17 00:27N 27°55' W 082°25'0 0.0
2018-Mar-16 23:57N 27°55' W 082°25'0 0.0
2018-Mar-16 23:27N 27°55' W 082°25'0 0.0
2018-Mar-16 22:57N 27°55' W 082°25'0 0.0
2018-Mar-16 22:27N 27°55' W 082°25'0 0.0
2018-Mar-16 21:57N 27°55' W 082°25'0 0.0
2018-Mar-16 21:27N 27°55' W 082°25'0 0.0
2018-Mar-16 20:57N 27°55' W 082°25'0 0.0
2018-Mar-16 20:27N 27°55' W 082°25'0 0.0
2018-Mar-16 19:57N 27°55' W 082°25'0 0.0
2018-Mar-16 19:27N 27°55' W 082°25'0 0.0
2018-Mar-16 18:57N 27°55' W 082°25'0 0.0
2018-Mar-16 18:25N 27°55' W 082°25'0 0.0
2018-Mar-16 17:57N 27°55' W 082°25'0 0.0
2018-Mar-16 17:27N 27°55' W 082°25'0 0.0
2018-Mar-16 16:57N 27°55' W 082°25'0 0.0
2018-Mar-16 16:27N 27°55' W 082°25'0 0.0
2018-Mar-16 15:57N 27°55' W 082°25'0 0.0
2018-Mar-16 15:27N 27°55' W 082°25'0 0.0
2018-Mar-16 14:57N 27°55' W 082°25'0 0.0
2018-Mar-16 14:27N 27°55' W 082°25'0 0.0
2018-Mar-16 13:57N 27°55' W 082°25'0 0.0
2018-Mar-16 13:21N 27°55' W 082°25'0 0.0
2018-Mar-16 12:57N 27°55' W 082°25'0 0.0
2018-Mar-16 12:21N 27°55' W 082°25'0 0.0
2018-Mar-16 11:57N 27°55' W 082°25'0 0.0
2018-Mar-16 11:27N 27°55' W 082°25'0 0.0
2018-Mar-16 10:57N 27°55' W 082°25'0 0.0
2018-Mar-16 10:27N 27°55' W 082°25'0 0.0
2018-Mar-16 09:57N 27°55' W 082°25'0 0.0
2018-Mar-16 09:27N 27°55' W 082°25'0 0.0
2018-Mar-16 08:57N 27°55' W 082°25'0 0.0
2018-Mar-16 08:27N 27°55' W 082°25'0 0.0
2018-Mar-16 07:57N 27°55' W 082°25'0 0.0
2018-Mar-16 07:27N 27°55' W 082°25'0 0.0
2018-Mar-16 06:57N 27°55' W 082°25'0 0.0
2018-Mar-16 06:19N 27°55' W 082°25'0 0.0
2018-Mar-16 05:57N 27°55' W 082°25'0 0.0
2018-Mar-16 05:27N 27°55' W 082°25'0 0.0
2018-Mar-16 04:57N 27°55' W 082°25'0 0.0
2018-Mar-16 04:27N 27°55' W 082°25'0 0.0
2018-Mar-16 03:57N 27°55' W 082°25'0 0.0
2018-Mar-16 03:25N 27°55' W 082°25'0 0.0
2018-Mar-16 02:57N 27°55' W 082°25'0 0.0
2018-Mar-16 02:27N 27°55' W 082°25'0 0.0
2018-Mar-16 01:57N 27°55' W 082°25'0 0.0
2018-Mar-16 01:27N 27°55' W 082°25'0 0.0
2018-Mar-16 00:57N 27°55' W 082°25'0 0.0
2018-Mar-16 00:27N 27°55' W 082°25'0 0.0
2018-Mar-15 23:57N 27°55' W 082°25'0 0.0
2018-Mar-15 23:27N 27°55' W 082°25'0 0.0
2018-Mar-15 22:57N 27°55' W 082°25'0 0.0
2018-Mar-15 22:27N 27°55' W 082°25'0 0.0
2018-Mar-15 21:57N 27°55' W 082°25'0 0.0
2018-Mar-15 21:27N 27°55' W 082°25'0 0.0
2018-Mar-15 20:57N 27°55' W 082°25'0 0.0
2018-Mar-15 20:25N 27°55' W 082°25'0 0.0
2018-Mar-15 19:57N 27°55' W 082°25'0 0.0
2018-Mar-15 19:27N 27°55' W 082°25'0 0.0
2018-Mar-15 18:57N 27°55' W 082°25'0 0.0
2018-Mar-15 18:27N 27°55' W 082°25'0 0.0
2018-Mar-15 17:57N 27°55' W 082°25'0 0.0
2018-Mar-15 17:27N 27°55' W 082°25'0 0.0
2018-Mar-15 16:57N 27°55' W 082°25'  
Track history (hours):
 
Tides and Currents Weather Stations Pressure Air Temp Water Temp Dewpoint Dewpoint Depression Visibility Wind Speed Wind Dir Waves Ship Positions

Taizhou Pioneer

Last reported at 2018-Mar-25 16:46 UTC. Time now 2018-Apr-19 13:20 UTC.
Position N 09°11' W 079°52'.
Warning: this ship's position is 24 days out of date.

Length 180 m; draft 10.3 m.

Type: Cargo ship. MMSI: 229954000.

Date/timePositionNaut miles runAvg speedWind from/ knotsBaromVisibWave heightAir tempDewpointWater temp
2018-Mar-25 16:46N 09°11' W 079°52'2 7.8
2018-Mar-25 16:30N 09°12' W 079°54'4 5.3
2018-Mar-25 15:45N 09°15' W 079°55'0 0.6
2018-Mar-25 15:30N 09°15' W 079°55'1 1.6
2018-Mar-25 15:00N 09°16' W 079°55'0 0.4
2018-Mar-25 14:30N 09°16' W 079°55'0 0.4
2018-Mar-25 14:00N 09°17' W 079°55'1 0.7
2018-Mar-25 12:44N 09°17' W 079°55'2 6.8
2018-Mar-25 12:30N 09°19' W 079°55'3 5.4
2018-Mar-25 12:00N 09°22' W 079°55'1 2.0
2018-Mar-25 11:30N 09°23' W 079°56'0 0.0
2018-Mar-25 11:00N 09°23' W 079°56'0 0.0
2018-Mar-25 10:30N 09°23' W 079°56'0 0.0
2018-Mar-25 09:57N 09°23' W 079°56'0 0.0
2018-Mar-25 09:30N 09°23' W 079°56'0 0.0
2018-Mar-25 08:54N 09°23' W 079°56'0 0.0
2018-Mar-25 08:30N 09°23' W 079°56'0 0.0
2018-Mar-25 08:00N 09°23' W 079°56'0 0.0
2018-Mar-25 07:30N 09°23' W 079°56'0 0.0
2018-Mar-25 06:59N 09°23' W 079°56'0 0.0
2018-Mar-25 06:30N 09°23' W 079°56'0 0.0
2018-Mar-25 06:00N 09°23' W 079°56'0 0.0
2018-Mar-25 05:29N 09°23' W 079°56'0 0.0
2018-Mar-25 04:59N 09°23' W 079°56'0 0.0
2018-Mar-25 04:29N 09°23' W 079°56'0 0.0
2018-Mar-25 03:59N 09°23' W 079°56'0 0.0
2018-Mar-25 03:29N 09°23' W 079°56'0 0.0
2018-Mar-25 03:00N 09°23' W 079°56'0 0.0
2018-Mar-25 02:30N 09°23' W 079°56'0 0.0
2018-Mar-25 01:54N 09°23' W 079°56'0 0.0
2018-Mar-25 01:30N 09°23' W 079°56'0 0.0
2018-Mar-25 01:00N 09°23' W 079°56'0 0.0
2018-Mar-25 00:30N 09°23' W 079°56'0 0.0
2018-Mar-24 23:59N 09°23' W 079°56'0 0.0
2018-Mar-24 23:29N 09°23' W 079°56'0 0.0
2018-Mar-24 23:00N 09°23' W 079°56'0 0.0
2018-Mar-24 22:27N 09°23' W 079°56'0 0.0
2018-Mar-24 22:00N 09°23' W 079°56'0 0.0
2018-Mar-24 21:29N 09°23' W 079°56'0 0.0
2018-Mar-24 21:00N 09°23' W 079°56'0 0.0
2018-Mar-24 20:30N 09°23' W 079°56'0 0.0
2018-Mar-24 19:59N 09°23' W 079°56'0 0.0
2018-Mar-24 19:30N 09°23' W 079°56'0 0.0
2018-Mar-24 19:00N 09°23' W 079°56'0 0.0
2018-Mar-24 18:29N 09°23' W 079°56'0 0.0
2018-Mar-24 18:00N 09°23' W 079°56'0 0.0
2018-Mar-24 17:30N 09°23' W 079°56'0 0.0
2018-Mar-24 16:59N 09°23' W 079°56'0 0.0
2018-Mar-24 16:30N 09°23' W 079°56'0 0.0
2018-Mar-24 16:00N 09°23' W 079°56'0 0.0
2018-Mar-24 15:29N 09°23' W 079°56'0 0.0
2018-Mar-24 14:59N 09°23' W 079°56'0 0.0
2018-Mar-24 14:28N 09°23' W 079°56'0 0.0
2018-Mar-24 13:59N 09°23' W 079°56'0 0.0
2018-Mar-24 13:30N 09°23' W 079°56'0 0.0
2018-Mar-24 13:00N 09°23' W 079°56'0 0.0
2018-Mar-24 12:29N 09°23' W 079°56'0 0.0
2018-Mar-24 11:58N 09°23' W 079°56'0 0.0
2018-Mar-24 11:30N 09°23' W 079°56'0 0.0
2018-Mar-24 11:00N 09°23' W 079°56'0 0.0
2018-Mar-24 10:30N 09°23' W 079°56'0 0.0
2018-Mar-24 10:00N 09°23' W 079°56'0 0.0
2018-Mar-24 09:30N 09°23' W 079°56'0 0.0
2018-Mar-24 09:00N 09°23' W 079°56'0 0.0
2018-Mar-24 08:30N 09°23' W 079°56'0 0.0
2018-Mar-24 08:00N 09°23' W 079°56'0 0.1
2018-Mar-24 07:30N 09°23' W 079°56'0 0.0
2018-Mar-24 07:00N 09°23' W 079°56'0 0.0
2018-Mar-24 06:30N 09°23' W 079°56'0 0.0
2018-Mar-24 05:58N 09°23' W 079°56'0 0.0
2018-Mar-24 05:27N 09°23' W 079°56'0 0.0
2018-Mar-24 05:00N 09°23' W 079°56'0 0.0
2018-Mar-24 04:30N 09°23' W 079°56'0 0.0
2018-Mar-24 04:00N 09°23' W 079°56'0 0.0
2018-Mar-24 03:29N 09°23' W 079°56'0 0.0
2018-Mar-24 02:58N 09°23' W 079°56'0 0.0
2018-Mar-24 02:28N 09°23' W 079°56'0 0.0
2018-Mar-24 01:59N 09°23' W 079°56'0 0.1
2018-Mar-24 01:30N 09°23' W 079°56'0 0.0
2018-Mar-24 00:59N 09°23' W 079°56'0 0.0
2018-Mar-24 00:30N 09°23' W 079°56'0 0.0
2018-Mar-24 00:00N 09°23' W 079°56'0 0.1
2018-Mar-23 23:29N 09°23' W 079°56'0 0.0
2018-Mar-23 23:00N 09°23' W 079°56'0 0.0
2018-Mar-23 22:30N 09°23' W 079°56'0 0.1
2018-Mar-23 22:00N 09°23' W 079°56'0 0.1
2018-Mar-23 21:28N 09°23' W 079°56'0 0.1
2018-Mar-23 21:00N 09°23' W 079°56'0 0.1
2018-Mar-23 20:27N 09°23' W 079°56'0 0.0
2018-Mar-23 20:00N 09°23' W 079°56'0 0.1
2018-Mar-23 19:27N 09°23' W 079°56'0 0.0
2018-Mar-23 18:58N 09°23' W 079°56'0 0.0
2018-Mar-23 18:29N 09°23' W 079°56'0 0.0
2018-Mar-23 18:01N 09°23' W 079°56'0 0.0
2018-Mar-23 17:29N 09°23' W 079°56'0 0.0
2018-Mar-23 16:59N 09°23' W 079°56'0 0.0
2018-Mar-23 16:29N 09°23' W 079°56'0 0.0
2018-Mar-23 15:59N 09°23' W 079°56'0 0.1
2018-Mar-23 15:29N 09°23' W 079°56'0 0.0
2018-Mar-23 14:58N 09°23' W 079°56'0 0.1
2018-Mar-23 14:29N 09°23' W 079°56'0 0.3
2018-Mar-23 14:00N 09°23' W 079°55'2 3.9
2018-Mar-23 13:30N 09°25' W 079°55'2 3.1
2018-Mar-23 12:53N 09°25' W 079°57'0 0.0
2018-Mar-23 12:24N 09°25' W 079°57'0 0.0
2018-Mar-23 11:57N 09°25' W 079°57'0 0.0
2018-Mar-23 11:30N 09°25' W 079°57'0 0.0
2018-Mar-23 10:59N 09°25' W 079°57'0 0.0
2018-Mar-23 10:29N 09°25' W 079°57'0 0.0
2018-Mar-23 09:57N 09°25' W 079°57'0 0.0
2018-Mar-23 09:29N 09°25' W 079°57'0 0.0
2018-Mar-23 08:57N 09°25' W 079°57'0 0.0
2018-Mar-23 08:22N 09°25' W 079°57'0 0.0
2018-Mar-23 07:59N 09°25' W 079°57'0 0.0
2018-Mar-23 07:29N 09°25' W 079°57'0 0.0
2018-Mar-23 06:53N 09°25' W 079°57'0 0.0
2018-Mar-23 06:29N 09°25' W 079°57'0 0.0
2018-Mar-23 06:00N 09°25' W 079°57'0 0.0
2018-Mar-23 05:30N 09°25' W 079°57'0 0.0
2018-Mar-23 05:00N 09°25' W 079°57'0 0.0
2018-Mar-23 04:30N 09°25' W 079°57'0 0.0
2018-Mar-23 03:54N 09°25' W 079°57'0 0.0
2018-Mar-23 03:30N 09°25' W 079°57'0 0.0
2018-Mar-23 03:00N 09°25' W 079°57'0 0.0
2018-Mar-23 01:21N 09°25' W 079°57'0 0.0
2018-Mar-23 00:53N 09°25' W 079°57'0 0.0
2018-Mar-23 00:30N 09°25' W 079°57'  
2018-Mar-18 11:46N 27°45' W 082°31'3 9.8
2018-Mar-18 11:30N 27°48' W 082°30'510.0
2018-Mar-18 10:59N 27°52' W 082°27'3 6.6
2018-Mar-18 10:30N 27°55' W 082°26'0 0.7
2018-Mar-18 09:56N 27°55' W 082°25'0 0.0
2018-Mar-18 09:29N 27°55' W 082°25'0 0.0
2018-Mar-18 08:59N 27°55' W 082°25'0 0.0
2018-Mar-18 08:29N 27°55' W 082°25'0 0.0
2018-Mar-18 07:59N 27°55' W 082°25'0 0.0
2018-Mar-18 07:26N 27°55' W 082°25'0 0.0
2018-Mar-18 06:59N 27°55' W 082°25'0 0.0
2018-Mar-18 06:29N 27°55' W 082°25'0 0.0
2018-Mar-18 05:56N 27°55' W 082°25'0 0.0
2018-Mar-18 05:29N 27°55' W 082°25'0 0.0
2018-Mar-18 04:59N 27°55' W 082°25'0 0.0
2018-Mar-18 04:29N 27°55' W 082°25'0 0.0
2018-Mar-18 03:59N 27°55' W 082°25'0 0.0
2018-Mar-18 03:29N 27°55' W 082°25'0 0.0
2018-Mar-18 02:59N 27°55' W 082°25'0 0.0
2018-Mar-18 02:29N 27°55' W 082°25'0 0.0
2018-Mar-18 01:59N 27°55' W 082°25'0 0.0
2018-Mar-18 01:29N 27°55' W 082°25'0 0.0
2018-Mar-18 00:56N 27°55' W 082°25'0 0.0
2018-Mar-18 00:29N 27°55' W 082°25'0 0.0
2018-Mar-17 23:59N 27°55' W 082°25'0 0.0
2018-Mar-17 23:29N 27°55' W 082°25'0 0.0
2018-Mar-17 22:59N 27°55' W 082°25'0 0.0
2018-Mar-17 22:29N 27°55' W 082°25'0 0.0
2018-Mar-17 21:59N 27°55' W 082°25'0 0.0
2018-Mar-17 21:29N 27°55' W 082°25'0 0.0
2018-Mar-17 20:59N 27°55' W 082°25'0 0.0
2018-Mar-17 20:29N 27°55' W 082°25'0 0.0
2018-Mar-17 19:59N 27°55' W 082°25'0 0.0
2018-Mar-17 19:29N 27°55' W 082°25'0 0.0
2018-Mar-17 18:59N 27°55' W 082°25'0 0.0
2018-Mar-17 18:29N 27°55' W 082°25'0 0.0
2018-Mar-17 17:59N 27°55' W 082°25'0 0.0
2018-Mar-17 17:29N 27°55' W 082°25'0 0.0
2018-Mar-17 16:59N 27°55' W 082°25'0 0.0
2018-Mar-17 16:29N 27°55' W 082°25'0 0.0
2018-Mar-17 15:59N 27°55' W 082°25'0 0.0
2018-Mar-17 15:29N 27°55' W 082°25'0 0.0
2018-Mar-17 15:00N 27°55' W 082°25'0 0.5
2018-Mar-17 14:27N 27°55' W 082°25'0 0.0
2018-Mar-17 13:57N 27°55' W 082°25'0 0.0
2018-Mar-17 13:21N 27°55' W 082°25'0 0.0
2018-Mar-17 12:57N 27°55' W 082°25'0 0.0
2018-Mar-17 12:27N 27°55' W 082°25'0 0.0
2018-Mar-17 11:57N 27°55' W 082°25'0 0.0
2018-Mar-17 11:27N 27°55' W 082°25'0 0.0
2018-Mar-17 10:57N 27°55' W 082°25'0 0.0
2018-Mar-17 10:27N 27°55' W 082°25'0 0.0
2018-Mar-17 09:57N 27°55' W 082°25'0 0.0
2018-Mar-17 09:27N 27°55' W 082°25'0 0.0
2018-Mar-17 08:57N 27°55' W 082°25'0 0.0
2018-Mar-17 08:27N 27°55' W 082°25'0 0.0
2018-Mar-17 07:57N 27°55' W 082°25'0 0.0
2018-Mar-17 07:27N 27°55' W 082°25'0 0.0
2018-Mar-17 06:57N 27°55' W 082°25'0 0.0
2018-Mar-17 06:25N 27°55' W 082°25'0 0.0
2018-Mar-17 05:57N 27°55' W 082°25'0 0.0
2018-Mar-17 05:27N 27°55' W 082°25'0 0.0
2018-Mar-17 04:57N 27°55' W 082°25'0 0.0
2018-Mar-17 04:27N 27°55' W 082°25'0 0.0
2018-Mar-17 03:57N 27°55' W 082°25'0 0.0
2018-Mar-17 03:27N 27°55' W 082°25'0 0.0
2018-Mar-17 02:55N 27°55' W 082°25'0 0.0
2018-Mar-17 02:27N 27°55' W 082°25'0 0.0
2018-Mar-17 01:57N 27°55' W 082°25'0 0.0
2018-Mar-17 01:27N 27°55' W 082°25'0 0.0
2018-Mar-17 00:57N 27°55' W 082°25'0 0.0
2018-Mar-17 00:27N 27°55' W 082°25'0 0.0
2018-Mar-16 23:57N 27°55' W 082°25'0 0.0
2018-Mar-16 23:27N 27°55' W 082°25'0 0.0
2018-Mar-16 22:57N 27°55' W 082°25'0 0.0
2018-Mar-16 22:27N 27°55' W 082°25'0 0.0
2018-Mar-16 21:57N 27°55' W 082°25'0 0.0
2018-Mar-16 21:27N 27°55' W 082°25'0 0.0
2018-Mar-16 20:57N 27°55' W 082°25'0 0.0
2018-Mar-16 20:27N 27°55' W 082°25'0 0.0
2018-Mar-16 19:57N 27°55' W 082°25'0 0.0
2018-Mar-16 19:27N 27°55' W 082°25'0 0.0
2018-Mar-16 18:57N 27°55' W 082°25'0 0.0
2018-Mar-16 18:25N 27°55' W 082°25'0 0.0
2018-Mar-16 17:57N 27°55' W 082°25'0 0.0
2018-Mar-16 17:27N 27°55' W 082°25'0 0.0
2018-Mar-16 16:57N 27°55' W 082°25'0 0.0
2018-Mar-16 16:27N 27°55' W 082°25'0 0.0
2018-Mar-16 15:57N 27°55' W 082°25'0 0.0
2018-Mar-16 15:27N 27°55' W 082°25'0 0.0
2018-Mar-16 14:57N 27°55' W 082°25'0 0.0
2018-Mar-16 14:27N 27°55' W 082°25'0 0.0
2018-Mar-16 13:57N 27°55' W 082°25'0 0.0
2018-Mar-16 13:21N 27°55' W 082°25'0 0.0
2018-Mar-16 12:57N 27°55' W 082°25'0 0.0
2018-Mar-16 12:21N 27°55' W 082°25'0 0.0
2018-Mar-16 11:57N 27°55' W 082°25'0 0.0
2018-Mar-16 11:27N 27°55' W 082°25'0 0.0
2018-Mar-16 10:57N 27°55' W 082°25'0 0.0
2018-Mar-16 10:27N 27°55' W 082°25'0 0.0
2018-Mar-16 09:57N 27°55' W 082°25'0 0.0
2018-Mar-16 09:27N 27°55' W 082°25'0 0.0
2018-Mar-16 08:57N 27°55' W 082°25'0 0.0
2018-Mar-16 08:27N 27°55' W 082°25'0 0.0
2018-Mar-16 07:57N 27°55' W 082°25'0 0.0
2018-Mar-16 07:27N 27°55' W 082°25'0 0.0
2018-Mar-16 06:57N 27°55' W 082°25'0 0.0
2018-Mar-16 06:19N 27°55' W 082°25'0 0.0
2018-Mar-16 05:57N 27°55' W 082°25'0 0.0
2018-Mar-16 05:27N 27°55' W 082°25'0 0.0
2018-Mar-16 04:57N 27°55' W 082°25'0 0.0
2018-Mar-16 04:27N 27°55' W 082°25'0 0.0
2018-Mar-16 03:57N 27°55' W 082°25'0 0.0
2018-Mar-16 03:25N 27°55' W 082°25'0 0.0
2018-Mar-16 02:57N 27°55' W 082°25'0 0.0
2018-Mar-16 02:27N 27°55' W 082°25'0 0.0
2018-Mar-16 01:57N 27°55' W 082°25'0 0.0
2018-Mar-16 01:27N 27°55' W 082°25'0 0.0
2018-Mar-16 00:57N 27°55' W 082°25'0 0.0
2018-Mar-16 00:27N 27°55' W 082°25'0 0.0
2018-Mar-15 23:57N 27°55' W 082°25'0 0.0
2018-Mar-15 23:27N 27°55' W 082°25'0 0.0
2018-Mar-15 22:57N 27°55' W 082°25'0 0.0
2018-Mar-15 22:27N 27°55' W 082°25'0 0.0
2018-Mar-15 21:57N 27°55' W 082°25'0 0.0
2018-Mar-15 21:27N 27°55' W 082°25'0 0.0
2018-Mar-15 20:57N 27°55' W 082°25'0 0.0
2018-Mar-15 20:25N 27°55' W 082°25'0 0.0
2018-Mar-15 19:57N 27°55' W 082°25'0 0.0
2018-Mar-15 19:27N 27°55' W 082°25'0 0.0
2018-Mar-15 18:57N 27°55' W 082°25'0 0.0
2018-Mar-15 18:27N 27°55' W 082°25'0 0.0
2018-Mar-15 17:57N 27°55' W 082°25'0 0.0
2018-Mar-15 17:27N 27°55' W 082°25'0 0.0
2018-Mar-15 16:57N 27°55' W 082°25'  

Dump ship's entire track history